UNNT

Tolmachevo Airport

Novosibirsk, Russian Federation
TAF UNNT 182300Z 1900/1924 19006G12MPS 9999 BKN016 TEMPO 1900/1903 3100 -SN BR BKN011 BECMG 1911/1912 14003G08MPS TEMPO 1912/1924 3100 FU BR BKN011
Issued Valid From Valid To
Jan-18 @ 23:00 UTC
(3 hours ago)
Jan-19 @ 00:00 UTC
(2 hours ago)
Jan-20 @ 00:00 UTC
(in 22 hours)
Jan-19 @ 00:00 to Jan-19 @ 11:00
TAF UNNT 182300Z 1900/1924 19006G12MPS 9999 BKN016
Wind Visibility Clouds
190° at 12 knots
 Gusting to 23 knots
10,000+ meters
  • Broken at 1,600' AGL
Temporary Jan-19 @ 00:00 to Jan-19 @ 03:00
TEMPO 1900/1903 3100 -SN BR BKN011
Visibility Clouds Conditions
3,106 meters
  • Broken at 1,100' AGL
  • Light Snow
  • Mist
Becoming Jan-19 @ 11:00 to Jan-20 @ 00:00
BECMG 1911/1912 14003G08MPS
Wind Visibility Clouds
140° at 6 knots
 Gusting to 16 knots
10,000+ meters
  • Broken at 1,600' AGL
Temporary Jan-19 @ 12:00 to Jan-20 @ 00:00
TEMPO 1912/1924 3100 FU BR BKN011
Visibility Clouds Conditions
3,106 meters
  • Broken at 1,100' AGL
  • Smoke
  • Mist
TAF UNNT 182300Z 1900/1924 19006G12MPS 9999 BKN016 TEMPO 1900/1903 3100 -SN BR BKN011 BECMG 1911/1912 14003G08MPS TEMPO 1912/1924 3100 FU BR BKN011
Issued Jan-18 @ 23:00 UTC
(3 hours ago)
Valid From Jan-19 @ 00:00 UTC
(2 hours ago)
Valid To Jan-20 @ 00:00 UTC
(in 22 hours)
Jan-19 @ 00:00 - Jan-19 @ 11:00
Wind Visibility
190° at 12 knots
 Gusting to 23 knots
10,000+ meters
Clouds
  • Broken at 1,600' AGL
Temporary Jan-19 @ 00:00 - Jan-19 @ 03:00
Clouds
  • Broken at 1,100' AGL
Conditions
  • Light Snow
  • Mist
Becoming Jan-19 @ 11:00 - Jan-20 @ 00:00
Wind Visibility
140° at 6 knots
 Gusting to 16 knots
10,000+ meters
Clouds
  • Broken at 1,600' AGL
Temporary Jan-19 @ 12:00 - Jan-20 @ 00:00
Clouds
  • Broken at 1,100' AGL
Conditions
  • Smoke
  • Mist